sensor_id;sensor_type;location;lat;lon;timestamp;pressure;altitude;pressure_sealevel;temperature;humidity
6565;BME280;3316;44.118;27.258;2022-07-29T00:02:07;101191.38;;;24.76;100.00
6565;BME280;3316;44.118;27.258;2022-07-29T00:04:36;101192.25;;;24.77;100.00
6565;BME280;3316;44.118;27.258;2022-07-29T00:07:03;101187.91;;;24.74;100.00
6565;BME280;3316;44.118;27.258;2022-07-29T00:09:29;101178.63;;;24.64;100.00
6565;BME280;3316;44.118;27.258;2022-07-29T00:11:56;101189.56;;;24.77;100.00
6565;BME280;3316;44.118;27.258;2022-07-29T00:14:23;101187.34;;;24.83;100.00
6565;BME280;3316;44.118;27.258;2022-07-29T00:16:49;101186.03;;;24.90;100.00
6565;BME280;3316;44.118;27.258;2022-07-29T00:19:14;101191.06;;;24.96;100.00
6565;BME280;3316;44.118;27.258;2022-07-29T00:21:39;101167.38;;;24.71;100.00
6565;BME280;3316;44.118;27.258;2022-07-29T00:24:05;101190.66;;;24.88;100.00
6565;BME280;3316;44.118;27.258;2022-07-29T00:26:31;101182.97;;;24.96;100.00
6565;BME280;3316;44.118;27.258;2022-07-29T00:29:02;101199.69;;;25.01;100.00
6565;BME280;3316;44.118;27.258;2022-07-29T00:31:28;101188.53;;;24.93;100.00
6565;BME280;3316;44.118;27.258;2022-07-29T00:33:54;101190.91;;;24.84;100.00
6565;BME280;3316;44.118;27.258;2022-07-29T00:36:19;101187.75;;;24.61;100.00
6565;BME280;3316;44.118;27.258;2022-07-29T00:38:49;101193.50;;;24.55;100.00
6565;BME280;3316;44.118;27.258;2022-07-29T00:41:16;101194.00;;;24.62;100.00
6565;BME280;3316;44.118;27.258;2022-07-29T00:43:42;101193.16;;;24.61;100.00
6565;BME280;3316;44.118;27.258;2022-07-29T00:46:08;101175.75;;;24.37;100.00
6565;BME280;3316;44.118;27.258;2022-07-29T00:48:33;101194.75;;;24.34;100.00
6565;BME280;3316;44.118;27.258;2022-07-29T00:51:00;101186.09;;;24.29;100.00
6565;BME280;3316;44.118;27.258;2022-07-29T00:53:26;101189.66;;;24.30;100.00
6565;BME280;3316;44.118;27.258;2022-07-29T00:55:56;101185.66;;;24.21;100.00
6565;BME280;3316;44.118;27.258;2022-07-29T00:58:23;101190.78;;;24.26;100.00
6565;BME280;3316;44.118;27.258;2022-07-29T01:00:48;101189.22;;;24.22;100.00
6565;BME280;3316;44.118;27.258;2022-07-29T01:03:14;101191.28;;;24.17;100.00
6565;BME280;3316;44.118;27.258;2022-07-29T01:05:40;101179.06;;;23.96;100.00
6565;BME280;3316;44.118;27.258;2022-07-29T01:08:07;101181.31;;;24.03;100.00
6565;BME280;3316;44.118;27.258;2022-07-29T01:10:33;101184.19;;;23.84;100.00
6565;BME280;3316;44.118;27.258;2022-07-29T01:13:02;101192.31;;;23.67;100.00
6565;BME280;3316;44.118;27.258;2022-07-29T01:15:28;101183.97;;;23.56;100.00
6565;BME280;3316;44.118;27.258;2022-07-29T01:18:04;101165.59;;;23.49;100.00
6565;BME280;3316;44.118;27.258;2022-07-29T01:31:25;101180.06;;;23.29;100.00
6565;BME280;3316;44.118;27.258;2022-07-29T01:33:59;101177.88;;;23.37;100.00
6565;BME280;3316;44.118;27.258;2022-07-29T01:36:33;101182.25;;;23.55;100.00
6565;BME280;3316;44.118;27.258;2022-07-29T01:39:27;101179.03;;;23.49;100.00
6565;BME280;3316;44.118;27.258;2022-07-29T01:42:00;101169.31;;;23.31;100.00
6565;BME280;3316;44.118;27.258;2022-07-29T01:44:33;101165.00;;;23.27;100.00
6565;BME280;3316;44.118;27.258;2022-07-29T01:47:07;101167.75;;;23.25;100.00
6565;BME280;3316;44.118;27.258;2022-07-29T01:49:36;101165.53;;;23.00;100.00
6565;BME280;3316;44.118;27.258;2022-07-29T01:52:13;101159.78;;;22.91;100.00
6565;BME280;3316;44.118;27.258;2022-07-29T01:54:49;101167.91;;;22.89;100.00
6565;BME280;3316;44.118;27.258;2022-07-29T01:57:18;101174.47;;;23.01;100.00
6565;BME280;3316;44.118;27.258;2022-07-29T01:59:47;101173.59;;;23.00;100.00
6565;BME280;3316;44.118;27.258;2022-07-29T02:02:18;101177.22;;;22.99;100.00
6565;BME280;3316;44.118;27.258;2022-07-29T02:04:45;101178.78;;;23.21;100.00
6565;BME280;3316;44.118;27.258;2022-07-29T02:07:17;101174.19;;;23.23;100.00
6565;BME280;3316;44.118;27.258;2022-07-29T02:09:43;101171.91;;;23.32;100.00
6565;BME280;3316;44.118;27.258;2022-07-29T02:12:11;101159.53;;;23.45;100.00
6565;BME280;3316;44.118;27.258;2022-07-29T02:14:42;101167.50;;;23.47;100.00
6565;BME280;3316;44.118;27.258;2022-07-29T02:17:10;101160.56;;;23.43;100.00
6565;BME280;3316;44.118;27.258;2022-07-29T02:19:38;101159.72;;;23.42;100.00
6565;BME280;3316;44.118;27.258;2022-07-29T02:22:05;101156.56;;;23.34;100.00
6565;BME280;3316;44.118;27.258;2022-07-29T02:24:31;101158.88;;;23.08;100.00
6565;BME280;3316;44.118;27.258;2022-07-29T02:26:59;101162.53;;;23.07;100.00
6565;BME280;3316;44.118;27.258;2022-07-29T02:29:27;101162.06;;;22.98;100.00
6565;BME280;3316;44.118;27.258;2022-07-29T02:31:54;101158.81;;;22.92;100.00
6565;BME280;3316;44.118;27.258;2022-07-29T02:34:20;101144.97;;;22.84;100.00
6565;BME280;3316;44.118;27.258;2022-07-29T02:36:48;101143.84;;;22.71;100.00
6565;BME280;3316;44.118;27.258;2022-07-29T02:39:15;101138.06;;;22.78;100.00
6565;BME280;3316;44.118;27.258;2022-07-29T02:41:47;101154.81;;;22.83;100.00
6565;BME280;3316;44.118;27.258;2022-07-29T02:44:18;101145.94;;;22.98;100.00
6565;BME280;3316;44.118;27.258;2022-07-29T02:51:57;101165.16;;;22.91;100.00
6565;BME280;3316;44.118;27.258;2022-07-29T02:54:44;101167.44;;;22.81;100.00
6565;BME280;3316;44.118;27.258;2022-07-29T02:57:20;101160.97;;;22.85;100.00
6565;BME280;3316;44.118;27.258;2022-07-29T02:59:50;101163.75;;;22.84;100.00
6565;BME280;3316;44.118;27.258;2022-07-29T03:02:17;101149.22;;;22.71;100.00
6565;BME280;3316;44.118;27.258;2022-07-29T03:04:43;101163.97;;;22.79;100.00
6565;BME280;3316;44.118;27.258;2022-07-29T03:07:11;101174.63;;;22.81;100.00
6565;BME280;3316;44.118;27.258;2022-07-29T03:09:38;101160.13;;;22.68;100.00
6565;BME280;3316;44.118;27.258;2022-07-29T03:12:06;101176.41;;;22.46;100.00
6565;BME280;3316;44.118;27.258;2022-07-29T03:14:33;101184.16;;;22.52;100.00
6565;BME280;3316;44.118;27.258;2022-07-29T03:16:59;101180.22;;;22.76;100.00
6565;BME280;3316;44.118;27.258;2022-07-29T03:19:26;101177.94;;;22.86;100.00
6565;BME280;3316;44.118;27.258;2022-07-29T03:21:52;101183.06;;;22.90;100.00
6565;BME280;3316;44.118;27.258;2022-07-29T03:24:29;101194.56;;;23.10;100.00
6565;BME280;3316;44.118;27.258;2022-07-29T03:26:55;101196.34;;;23.43;100.00
6565;BME280;3316;44.118;27.258;2022-07-29T03:29:21;101203.31;;;23.63;100.00
6565;BME280;3316;44.118;27.258;2022-07-29T03:31:47;101162.22;;;23.61;100.00
6565;BME280;3316;44.118;27.258;2022-07-29T03:34:12;101194.56;;;23.75;100.00
6565;BME280;3316;44.118;27.258;2022-07-29T03:36:37;101186.06;;;23.67;100.00
6565;BME280;3316;44.118;27.258;2022-07-29T03:39:04;101189.66;;;24.14;100.00
6565;BME280;3316;44.118;27.258;2022-07-29T03:41:31;101195.19;;;24.27;100.00
6565;BME280;3316;44.118;27.258;2022-07-29T03:43:58;101194.28;;;24.57;100.00
6565;BME280;3316;44.118;27.258;2022-07-29T03:46:26;101183.34;;;24.90;100.00
6565;BME280;3316;44.118;27.258;2022-07-29T03:48:58;101189.91;;;25.14;100.00
6565;BME280;3316;44.118;27.258;2022-07-29T03:51:25;101194.94;;;25.34;100.00
6565;BME280;3316;44.118;27.258;2022-07-29T03:53:51;101161.72;;;25.06;100.00
6565;BME280;3316;44.118;27.258;2022-07-29T03:56:21;101199.00;;;25.55;100.00
6565;BME280;3316;44.118;27.258;2022-07-29T03:58:47;101168.56;;;25.68;100.00
6565;BME280;3316;44.118;27.258;2022-07-29T04:01:14;101174.34;;;25.76;100.00
6565;BME280;3316;44.118;27.258;2022-07-29T04:03:40;101166.00;;;25.93;100.00
6565;BME280;3316;44.118;27.258;2022-07-29T04:06:06;101210.03;;;26.34;100.00
6565;BME280;3316;44.118;27.258;2022-07-29T04:08:33;101205.47;;;26.75;100.00
6565;BME280;3316;44.118;27.258;2022-07-29T04:11:00;101208.09;;;27.02;100.00
6565;BME280;3316;44.118;27.258;2022-07-29T04:13:25;101181.00;;;27.54;100.00
6565;BME280;3316;44.118;27.258;2022-07-29T04:15:51;101196.66;;;27.61;100.00
6565;BME280;3316;44.118;27.258;2022-07-29T04:18:16;101203.34;;;28.17;100.00
6565;BME280;3316;44.118;27.258;2022-07-29T04:20:42;101203.81;;;28.11;100.00
6565;BME280;3316;44.118;27.258;2022-07-29T04:23:07;101210.25;;;28.57;100.00
6565;BME280;3316;44.118;27.258;2022-07-29T04:25:32;101150.88;;;28.07;100.00
6565;BME280;3316;44.118;27.258;2022-07-29T04:27:58;101200.78;;;28.97;98.79
6565;BME280;3316;44.118;27.258;2022-07-29T04:30:27;101218.50;;;29.36;95.90
6565;BME280;3316;44.118;27.258;2022-07-29T04:32:52;101219.00;;;29.63;95.19
6565;BME280;3316;44.118;27.258;2022-07-29T04:35:20;101215.97;;;29.90;93.60
6565;BME280;3316;44.118;27.258;2022-07-29T04:37:46;101214.19;;;30.00;93.22
6565;BME280;3316;44.118;27.258;2022-07-29T04:40:12;101224.56;;;30.28;92.42
6565;BME280;3316;44.118;27.258;2022-07-29T04:42:38;101224.59;;;30.81;90.82
6565;BME280;3316;44.118;27.258;2022-07-29T04:45:04;101222.47;;;30.95;90.07
6565;BME280;3316;44.118;27.258;2022-07-29T04:47:30;101220.31;;;31.19;88.27
6565;BME280;3316;44.118;27.258;2022-07-29T04:49:55;101220.34;;;30.67;92.76
6565;BME280;3316;44.118;27.258;2022-07-29T04:52:21;101217.56;;;31.10;90.15
6565;BME280;3316;44.118;27.258;2022-07-29T04:54:47;101219.75;;;31.16;89.98
6565;BME280;3316;44.118;27.258;2022-07-29T04:57:13;101224.84;;;31.50;88.30
6565;BME280;3316;44.118;27.258;2022-07-29T04:59:38;101219.53;;;31.49;87.93
6565;BME280;3316;44.118;27.258;2022-07-29T05:02:04;101221.03;;;31.63;87.80
6565;BME280;3316;44.118;27.258;2022-07-29T05:04:29;101224.97;;;31.49;88.91
6565;BME280;3316;44.118;27.258;2022-07-29T05:06:55;101241.00;;;31.73;88.27
6565;BME280;3316;44.118;27.258;2022-07-29T05:09:20;101229.34;;;31.40;89.24
6565;BME280;3316;44.118;27.258;2022-07-29T05:11:46;101233.44;;;31.46;89.53
6565;BME280;3316;44.118;27.258;2022-07-29T05:14:11;101221.59;;;30.63;93.70
6565;BME280;3316;44.118;27.258;2022-07-29T05:16:37;101235.66;;;30.36;96.53
6565;BME280;3316;44.118;27.258;2022-07-29T05:19:04;101231.19;;;29.36;100.00
6565;BME280;3316;44.118;27.258;2022-07-29T05:21:29;101237.13;;;29.41;100.00
6565;BME280;3316;44.118;27.258;2022-07-29T05:23:55;101225.53;;;29.39;100.00
6565;BME280;3316;44.118;27.258;2022-07-29T05:26:20;101233.47;;;29.75;100.00
6565;BME280;3316;44.118;27.258;2022-07-29T05:28:45;101244.22;;;29.76;100.00
6565;BME280;3316;44.118;27.258;2022-07-29T05:31:11;101232.94;;;29.70;100.00
6565;BME280;3316;44.118;27.258;2022-07-29T05:33:36;101229.28;;;29.71;100.00
6565;BME280;3316;44.118;27.258;2022-07-29T05:36:05;101243.84;;;29.92;100.00
6565;BME280;3316;44.118;27.258;2022-07-29T05:38:32;101240.06;;;30.26;100.00
6565;BME280;3316;44.118;27.258;2022-07-29T05:40:58;101240.13;;;29.82;100.00
6565;BME280;3316;44.118;27.258;2022-07-29T05:43:24;101214.69;;;29.50;100.00
6565;BME280;3316;44.118;27.258;2022-07-29T05:45:50;101238.91;;;29.86;100.00
6565;BME280;3316;44.118;27.258;2022-07-29T05:48:15;101244.56;;;29.61;100.00
6565;BME280;3316;44.118;27.258;2022-07-29T05:50:41;101240.84;;;29.51;100.00
6565;BME280;3316;44.118;27.258;2022-07-29T05:53:06;101238.09;;;29.40;100.00
6565;BME280;3316;44.118;27.258;2022-07-29T05:55:32;101248.16;;;29.16;100.00
6565;BME280;3316;44.118;27.258;2022-07-29T05:57:57;101247.75;;;29.09;100.00
6565;BME280;3316;44.118;27.258;2022-07-29T06:00:22;101249.53;;;29.21;100.00
6565;BME280;3316;44.118;27.258;2022-07-29T06:02:48;101241.41;;;29.32;100.00
6565;BME280;3316;44.118;27.258;2022-07-29T06:05:13;101251.16;;;29.46;100.00
6565;BME280;3316;44.118;27.258;2022-07-29T06:07:40;101253.13;;;29.44;100.00
6565;BME280;3316;44.118;27.258;2022-07-29T06:10:06;101250.19;;;29.69;100.00
6565;BME280;3316;44.118;27.258;2022-07-29T06:12:31;101262.56;;;30.06;100.00
6565;BME280;3316;44.118;27.258;2022-07-29T06:14:57;101254.75;;;30.24;100.00
6565;BME280;3316;44.118;27.258;2022-07-29T06:17:23;101246.22;;;30.39;96.65
6565;BME280;3316;44.118;27.258;2022-07-29T06:19:48;101251.25;;;30.55;93.87
6565;BME280;3316;44.118;27.258;2022-07-29T06:22:15;101254.84;;;30.55;96.95
6565;BME280;3316;44.118;27.258;2022-07-29T06:24:41;101249.25;;;29.81;100.00
6565;BME280;3316;44.118;27.258;2022-07-29T06:27:11;101245.91;;;29.66;100.00
6565;BME280;3316;44.118;27.258;2022-07-29T06:29:37;101230.75;;;29.75;100.00
6565;BME280;3316;44.118;27.258;2022-07-29T06:32:03;101243.78;;;29.48;100.00
6565;BME280;3316;44.118;27.258;2022-07-29T06:34:29;101241.84;;;30.05;100.00
6565;BME280;3316;44.118;27.258;2022-07-29T06:36:54;101238.31;;;30.47;96.16
6565;BME280;3316;44.118;27.258;2022-07-29T06:39:20;101238.19;;;30.81;95.87
6565;BME280;3316;44.118;27.258;2022-07-29T06:41:49;101238.81;;;30.84;94.56
6565;BME280;3316;44.118;27.258;2022-07-29T06:44:16;101242.59;;;31.13;90.08
6565;BME280;3316;44.118;27.258;2022-07-29T06:46:41;101249.56;;;31.27;93.35
6565;BME280;3316;44.118;27.258;2022-07-29T06:49:07;101247.97;;;31.04;94.98
6565;BME280;3316;44.118;27.258;2022-07-29T06:51:33;101235.91;;;30.65;98.16
6565;BME280;3316;44.118;27.258;2022-07-29T06:53:59;101241.09;;;31.20;94.92
6565;BME280;3316;44.118;27.258;2022-07-29T06:56:26;101236.34;;;31.13;92.33
6565;BME280;3316;44.118;27.258;2022-07-29T06:58:51;101240.88;;;31.33;92.21
6565;BME280;3316;44.118;27.258;2022-07-29T07:01:17;101234.69;;;31.42;91.57
6565;BME280;3316;44.118;27.258;2022-07-29T07:03:42;101230.47;;;31.58;89.86
6565;BME280;3316;44.118;27.258;2022-07-29T07:06:08;101240.22;;;31.91;88.44
6565;BME280;3316;44.118;27.258;2022-07-29T07:08:33;101237.63;;;32.29;85.06
6565;BME280;3316;44.118;27.258;2022-07-29T07:10:59;101253.06;;;32.69;80.98
6565;BME280;3316;44.118;27.258;2022-07-29T07:13:25;101249.94;;;32.14;81.36
6565;BME280;3316;44.118;27.258;2022-07-29T07:15:51;101242.69;;;32.43;80.08
6565;BME280;3316;44.118;27.258;2022-07-29T07:18:17;101254.78;;;32.70;79.42
6565;BME280;3316;44.118;27.258;2022-07-29T07:20:44;101241.50;;;32.36;78.27
6565;BME280;3316;44.118;27.258;2022-07-29T07:23:10;101244.88;;;32.10;78.46
6565;BME280;3316;44.118;27.258;2022-07-29T07:25:35;101244.50;;;32.24;78.89
6565;BME280;3316;44.118;27.258;2022-07-29T07:28:02;101243.75;;;32.81;77.02
6565;BME280;3316;44.118;27.258;2022-07-29T07:30:27;101243.59;;;32.73;77.56
6565;BME280;3316;44.118;27.258;2022-07-29T07:32:53;101251.41;;;32.37;79.24
6565;BME280;3316;44.118;27.258;2022-07-29T07:35:19;101245.25;;;32.35;79.45
6565;BME280;3316;44.118;27.258;2022-07-29T07:37:45;101255.63;;;32.51;78.68
6565;BME280;3316;44.118;27.258;2022-07-29T07:40:11;101243.03;;;32.79;76.58
6565;BME280;3316;44.118;27.258;2022-07-29T07:42:38;101241.84;;;32.91;75.83
6565;BME280;3316;44.118;27.258;2022-07-29T07:45:04;101236.00;;;32.76;76.54
6565;BME280;3316;44.118;27.258;2022-07-29T07:47:31;101236.72;;;32.59;78.13
6565;BME280;3316;44.118;27.258;2022-07-29T07:49:56;101238.84;;;32.94;75.90
6565;BME280;3316;44.118;27.258;2022-07-29T07:52:22;101240.97;;;33.28;73.80
6565;BME280;3316;44.118;27.258;2022-07-29T07:54:48;101229.75;;;33.32;73.82
6565;BME280;3316;44.118;27.258;2022-07-29T07:57:14;101228.53;;;32.69;75.55
6565;BME280;3316;44.118;27.258;2022-07-29T07:59:40;101235.28;;;33.03;73.74
6565;BME280;3316;44.118;27.258;2022-07-29T08:02:07;101230.13;;;33.00;73.32
6565;BME280;3316;44.118;27.258;2022-07-29T08:04:32;101228.59;;;33.63;69.54
6565;BME280;3316;44.118;27.258;2022-07-29T08:06:58;101234.88;;;33.63;66.52
6565;BME280;3316;44.118;27.258;2022-07-29T08:09:25;101225.41;;;33.58;65.48
6565;BME280;3316;44.118;27.258;2022-07-29T08:11:51;101231.34;;;33.34;67.40
6565;BME280;3316;44.118;27.258;2022-07-29T08:14:18;101231.63;;;33.87;64.36
6565;BME280;3316;44.118;27.258;2022-07-29T08:16:43;101237.38;;;34.21;62.05
6565;BME280;3316;44.118;27.258;2022-07-29T08:19:09;101239.50;;;33.99;60.53
6565;BME280;3316;44.118;27.258;2022-07-29T08:21:35;101227.41;;;33.65;64.30
6565;BME280;3316;44.118;27.258;2022-07-29T08:24:01;101236.47;;;34.02;61.23
6565;BME280;3316;44.118;27.258;2022-07-29T08:26:45;101236.41;;;34.12;60.18
6565;BME280;3316;44.118;27.258;2022-07-29T08:29:11;101229.28;;;34.46;58.08
6565;BME280;3316;44.118;27.258;2022-07-29T08:31:37;101232.66;;;34.40;58.13
6565;BME280;3316;44.118;27.258;2022-07-29T08:34:03;101231.81;;;34.57;57.01
6565;BME280;3316;44.118;27.258;2022-07-29T08:36:29;101209.00;;;34.04;58.91
6565;BME280;3316;44.118;27.258;2022-07-29T08:38:55;101219.72;;;34.15;58.89
6565;BME280;3316;44.118;27.258;2022-07-29T08:41:21;101218.84;;;33.87;59.36
6565;BME280;3316;44.118;27.258;2022-07-29T08:43:48;101206.34;;;34.12;58.18
6565;BME280;3316;44.118;27.258;2022-07-29T08:46:14;101217.75;;;33.71;59.03
6565;BME280;3316;44.118;27.258;2022-07-29T08:48:40;101222.31;;;33.80;60.20
6565;BME280;3316;44.118;27.258;2022-07-29T08:51:06;101220.38;;;33.99;58.65
6565;BME280;3316;44.118;27.258;2022-07-29T08:53:32;101215.69;;;34.37;54.57
6565;BME280;3316;44.118;27.258;2022-07-29T08:55:59;101215.28;;;34.32;55.20
6565;BME280;3316;44.118;27.258;2022-07-29T08:58:26;101213.00;;;34.89;54.55
6565;BME280;3316;44.118;27.258;2022-07-29T09:00:55;101214.66;;;35.26;52.50
6565;BME280;3316;44.118;27.258;2022-07-29T09:03:24;101206.41;;;35.43;51.53
6565;BME280;3316;44.118;27.258;2022-07-29T09:05:51;101207.66;;;34.88;53.70
6565;BME280;3316;44.118;27.258;2022-07-29T09:08:17;101212.13;;;35.07;54.14
6565;BME280;3316;44.118;27.258;2022-07-29T09:10:43;101209.25;;;34.73;54.97
6565;BME280;3316;44.118;27.258;2022-07-29T09:13:09;101210.41;;;35.06;55.08
6565;BME280;3316;44.118;27.258;2022-07-29T09:15:35;101206.47;;;35.51;52.96
6565;BME280;3316;44.118;27.258;2022-07-29T09:18:01;101199.75;;;35.79;48.61
6565;BME280;3316;44.118;27.258;2022-07-29T09:20:27;101179.63;;;35.55;49.11
6565;BME280;3316;44.118;27.258;2022-07-29T09:23:13;101197.00;;;35.20;50.56
6565;BME280;3316;44.118;27.258;2022-07-29T09:25:41;101195.50;;;35.26;51.19
6565;BME280;3316;44.118;27.258;2022-07-29T09:28:10;101198.41;;;35.83;49.07
6565;BME280;3316;44.118;27.258;2022-07-29T09:30:50;101200.56;;;35.38;47.95
6565;BME280;3316;44.118;27.258;2022-07-29T09:33:16;101195.28;;;35.19;48.17
6565;BME280;3316;44.118;27.258;2022-07-29T09:35:41;101198.28;;;35.51;47.79
6565;BME280;3316;44.118;27.258;2022-07-29T09:38:13;101196.19;;;35.45;45.20
6565;BME280;3316;44.118;27.258;2022-07-29T09:40:39;101197.81;;;35.64;45.33
6565;BME280;3316;44.118;27.258;2022-07-29T09:43:12;101203.53;;;35.78;45.00
6565;BME280;3316;44.118;27.258;2022-07-29T09:45:38;101189.06;;;35.35;45.30
6565;BME280;3316;44.118;27.258;2022-07-29T09:48:19;101190.63;;;34.94;46.68
6565;BME280;3316;44.118;27.258;2022-07-29T09:50:46;101169.31;;;34.80;46.29
6565;BME280;3316;44.118;27.258;2022-07-29T09:53:30;101174.69;;;35.07;44.93
6565;BME280;3316;44.118;27.258;2022-07-29T09:55:56;101176.41;;;35.59;43.48
6565;BME280;3316;44.118;27.258;2022-07-29T09:58:22;101185.63;;;35.58;44.38
6565;BME280;3316;44.118;27.258;2022-07-29T10:00:49;101187.78;;;35.47;44.57
6565;BME280;3316;44.118;27.258;2022-07-29T10:03:16;101174.53;;;35.34;44.09
6565;BME280;3316;44.118;27.258;2022-07-29T10:05:43;101187.88;;;34.94;44.31
6565;BME280;3316;44.118;27.258;2022-07-29T10:08:09;101180.66;;;34.67;44.57
6565;BME280;3316;44.118;27.258;2022-07-29T10:10:37;101182.25;;;34.95;44.03
6565;BME280;3316;44.118;27.258;2022-07-29T10:13:06;101153.88;;;35.40;42.91
6565;BME280;3316;44.118;27.258;2022-07-29T10:15:34;101158.25;;;35.92;40.10
6565;BME280;3316;44.118;27.258;2022-07-29T10:18:04;101184.00;;;36.15;39.00
6565;BME280;3316;44.118;27.258;2022-07-29T10:20:31;101181.19;;;36.41;39.09
6565;BME280;3316;44.118;27.258;2022-07-29T10:22:56;101177.16;;;36.19;39.28
6565;BME280;3316;44.118;27.258;2022-07-29T10:25:24;101183.19;;;36.31;38.02
6565;BME280;3316;44.118;27.258;2022-07-29T10:27:50;101171.47;;;35.97;36.23
6565;BME280;3316;44.118;27.258;2022-07-29T10:30:21;101154.47;;;35.51;36.99
6565;BME280;3316;44.118;27.258;2022-07-29T10:43:37;101154.97;;;36.46;36.65
6565;BME280;3316;44.118;27.258;2022-07-29T10:46:06;101143.00;;;36.47;36.44
6565;BME280;3316;44.118;27.258;2022-07-29T10:48:32;101147.91;;;36.36;36.89
6565;BME280;3316;44.118;27.258;2022-07-29T10:51:00;101152.03;;;36.40;34.09
6565;BME280;3316;44.118;27.258;2022-07-29T10:56:28;101141.78;;;36.66;34.12
6565;BME280;3316;44.118;27.258;2022-07-29T11:01:53;101134.25;;;36.60;34.98
6565;BME280;3316;44.118;27.258;2022-07-29T11:07:11;101131.28;;;36.29;34.86
6565;BME280;3316;44.118;27.258;2022-07-29T11:09:38;101125.56;;;36.07;35.74
6565;BME280;3316;44.118;27.258;2022-07-29T11:12:45;101116.75;;;35.79;36.34
6565;BME280;3316;44.118;27.258;2022-07-29T11:14:56;101129.13;;;35.49;36.56
6565;BME280;3316;44.118;27.258;2022-07-29T11:17:24;101081.56;;;35.50;36.65
6565;BME280;3316;44.118;27.258;2022-07-29T11:19:50;101122.00;;;35.64;36.24
6565;BME280;3316;44.118;27.258;2022-07-29T11:22:34;101118.88;;;35.26;36.67
6565;BME280;3316;44.118;27.258;2022-07-29T11:25:18;101115.09;;;35.52;36.03
6565;BME280;3316;44.118;27.258;2022-07-29T11:27:45;101106.28;;;35.66;35.58
6565;BME280;3316;44.118;27.258;2022-07-29T11:30:10;101102.91;;;35.80;35.31
6565;BME280;3316;44.118;27.258;2022-07-29T11:32:41;101086.22;;;36.08;34.21
6565;BME280;3316;44.118;27.258;2022-07-29T11:35:23;101100.28;;;36.37;33.63
6565;BME280;3316;44.118;27.258;2022-07-29T11:38:23;101098.03;;;35.58;34.76
6565;BME280;3316;44.118;27.258;2022-07-29T11:41:29;101094.34;;;35.83;34.55
6565;BME280;3316;44.118;27.258;2022-07-29T11:44:01;101090.25;;;35.88;33.79
6565;BME280;3316;44.118;27.258;2022-07-29T11:49:25;101088.09;;;36.23;33.07
6565;BME280;3316;44.118;27.258;2022-07-29T11:51:52;101078.84;;;36.00;33.42
6565;BME280;3316;44.118;27.258;2022-07-29T11:54:24;101084.38;;;36.40;33.61
6565;BME280;3316;44.118;27.258;2022-07-29T11:56:51;101075.78;;;36.35;33.58
6565;BME280;3316;44.118;27.258;2022-07-29T11:59:19;101078.72;;;36.34;34.16
6565;BME280;3316;44.118;27.258;2022-07-29T12:01:57;101074.22;;;35.93;34.50
6565;BME280;3316;44.118;27.258;2022-07-29T12:04:23;101075.13;;;35.59;34.60
6565;BME280;3316;44.118;27.258;2022-07-29T12:06:53;101074.69;;;35.46;34.98
6565;BME280;3316;44.118;27.258;2022-07-29T12:09:20;101070.75;;;35.15;34.98
6565;BME280;3316;44.118;27.258;2022-07-29T12:11:47;101070.75;;;35.07;36.03
6565;BME280;3316;44.118;27.258;2022-07-29T12:14:29;101066.00;;;35.17;35.95
6565;BME280;3316;44.118;27.258;2022-07-29T12:16:55;101064.97;;;35.18;36.64
6565;BME280;3316;44.118;27.258;2022-07-29T12:19:20;101042.22;;;35.18;35.67
6565;BME280;3316;44.118;27.258;2022-07-29T12:21:55;101056.69;;;35.36;35.03
6565;BME280;3316;44.118;27.258;2022-07-29T12:24:23;101050.72;;;35.40;35.29
6565;BME280;3316;44.118;27.258;2022-07-29T12:26:56;101023.94;;;35.18;34.71
6565;BME280;3316;44.118;27.258;2022-07-29T12:29:22;101050.44;;;35.51;35.12
6565;BME280;3316;44.118;27.258;2022-07-29T12:31:52;101043.91;;;35.44;35.81
6565;BME280;3316;44.118;27.258;2022-07-29T12:34:20;101032.22;;;35.84;34.46
6565;BME280;3316;44.118;27.258;2022-07-29T12:36:48;101034.66;;;36.27;33.66
6565;BME280;3316;44.118;27.258;2022-07-29T12:39:16;101034.03;;;36.41;33.39
6565;BME280;3316;44.118;27.258;2022-07-29T12:41:43;101025.59;;;36.51;33.52
6565;BME280;3316;44.118;27.258;2022-07-29T12:44:09;101028.97;;;36.85;32.76
6565;BME280;3316;44.118;27.258;2022-07-29T12:46:35;101022.84;;;36.19;33.48
6565;BME280;3316;44.118;27.258;2022-07-29T12:49:01;101010.81;;;36.76;32.92
6565;BME280;3316;44.118;27.258;2022-07-29T12:51:40;101014.50;;;37.15;32.18
6565;BME280;3316;44.118;27.258;2022-07-29T12:54:11;101008.59;;;37.26;32.52
6565;BME280;3316;44.118;27.258;2022-07-29T12:56:39;101001.09;;;37.51;32.12
6565;BME280;3316;44.118;27.258;2022-07-29T12:59:34;100996.56;;;37.35;32.52
6565;BME280;3316;44.118;27.258;2022-07-29T13:01:59;100985.97;;;37.32;32.60
6565;BME280;3316;44.118;27.258;2022-07-29T13:04:29;100990.00;;;37.06;32.99
6565;BME280;3316;44.118;27.258;2022-07-29T13:07:23;100985.63;;;36.81;33.02
6565;BME280;3316;44.118;27.258;2022-07-29T13:09:49;100980.88;;;36.58;33.57
6565;BME280;3316;44.118;27.258;2022-07-29T13:12:14;100988.22;;;37.21;33.40
6565;BME280;3316;44.118;27.258;2022-07-29T13:14:45;100976.38;;;37.51;32.29
6565;BME280;3316;44.118;27.258;2022-07-29T13:17:21;100988.13;;;37.68;32.67
6565;BME280;3316;44.118;27.258;2022-07-29T13:19:50;100952.16;;;37.63;32.17
6565;BME280;3316;44.118;27.258;2022-07-29T13:22:20;100978.56;;;37.64;32.88
6565;BME280;3316;44.118;27.258;2022-07-29T13:24:53;100985.59;;;37.66;32.57
6565;BME280;3316;44.118;27.258;2022-07-29T13:27:20;100975.66;;;37.34;33.07
6565;BME280;3316;44.118;27.258;2022-07-29T13:29:47;100976.97;;;37.08;32.38
6565;BME280;3316;44.118;27.258;2022-07-29T13:32:14;100977.25;;;36.58;32.87
6565;BME280;3316;44.118;27.258;2022-07-29T13:34:40;100977.13;;;36.19;33.95
6565;BME280;3316;44.118;27.258;2022-07-29T13:37:06;100980.19;;;36.24;33.96
6565;BME280;3316;44.118;27.258;2022-07-29T13:39:31;100982.44;;;36.53;33.42